sensor_id;sensor_type;location;lat;lon;timestamp;P1;durP1;ratioP1;P2;durP2;ratioP2
28605;SDS011;46498;49.968;7.754;2023-01-16T00:01:45;3.28;;;0.93;;
28605;SDS011;46498;49.968;7.754;2023-01-16T00:06:46;3.30;;;1.05;;
28605;SDS011;46498;49.968;7.754;2023-01-16T00:11:47;5.35;;;1.02;;
28605;SDS011;46498;49.968;7.754;2023-01-16T00:16:48;8.95;;;1.23;;
28605;SDS011;46498;49.968;7.754;2023-01-16T00:21:49;3.95;;;1.30;;
28605;SDS011;46498;49.968;7.754;2023-01-16T00:26:50;3.95;;;1.10;;
28605;SDS011;46498;49.968;7.754;2023-01-16T00:31:51;9.50;;;1.10;;
28605;SDS011;46498;49.968;7.754;2023-01-16T00:36:52;6.00;;;1.60;;
28605;SDS011;46498;49.968;7.754;2023-01-16T00:41:53;12.32;;;1.30;;
28605;SDS011;46498;49.968;7.754;2023-01-16T00:46:54;8.38;;;1.42;;
28605;SDS011;46498;49.968;7.754;2023-01-16T00:51:54;7.82;;;1.48;;
28605;SDS011;46498;49.968;7.754;2023-01-16T00:56:55;7.40;;;1.27;;
28605;SDS011;46498;49.968;7.754;2023-01-16T01:01:56;7.57;;;1.10;;
28605;SDS011;46498;49.968;7.754;2023-01-16T01:06:57;11.23;;;1.40;;
28605;SDS011;46498;49.968;7.754;2023-01-16T01:11:58;4.60;;;1.20;;
28605;SDS011;46498;49.968;7.754;2023-01-16T01:16:59;2.72;;;0.90;;
28605;SDS011;46498;49.968;7.754;2023-01-16T01:22:00;6.10;;;1.17;;
28605;SDS011;46498;49.968;7.754;2023-01-16T01:27:01;6.37;;;1.62;;
28605;SDS011;46498;49.968;7.754;2023-01-16T01:32:01;4.32;;;1.55;;
28605;SDS011;46498;49.968;7.754;2023-01-16T01:37:04;7.12;;;1.15;;
28605;SDS011;46498;49.968;7.754;2023-01-16T01:47:30;6.07;;;1.62;;
28605;SDS011;46498;49.968;7.754;2023-01-16T01:52:34;5.78;;;1.30;;
28605;SDS011;46498;49.968;7.754;2023-01-16T01:57:36;12.77;;;1.85;;
28605;SDS011;46498;49.968;7.754;2023-01-16T02:02:43;6.05;;;1.27;;
28605;SDS011;46498;49.968;7.754;2023-01-16T02:07:54;4.55;;;1.70;;
28605;SDS011;46498;49.968;7.754;2023-01-16T02:12:56;9.10;;;1.80;;
28605;SDS011;46498;49.968;7.754;2023-01-16T02:17:58;6.97;;;1.30;;
28605;SDS011;46498;49.968;7.754;2023-01-16T02:23:35;6.22;;;1.55;;
28605;SDS011;46498;49.968;7.754;2023-01-16T02:36:56;12.52;;;2.10;;
28605;SDS011;46498;49.968;7.754;2023-01-16T02:42:28;4.97;;;1.02;;
28605;SDS011;46498;49.968;7.754;2023-01-16T02:47:40;6.72;;;1.12;;
28605;SDS011;46498;49.968;7.754;2023-01-16T02:55:29;5.10;;;1.02;;
28605;SDS011;46498;49.968;7.754;2023-01-16T03:00:34;5.10;;;1.55;;
28605;SDS011;46498;49.968;7.754;2023-01-16T03:05:38;7.85;;;2.08;;
28605;SDS011;46498;49.968;7.754;2023-01-16T03:19:28;6.03;;;1.40;;
28605;SDS011;46498;49.968;7.754;2023-01-16T03:24:49;4.62;;;1.17;;
28605;SDS011;46498;49.968;7.754;2023-01-16T03:33:07;4.35;;;1.12;;
28605;SDS011;46498;49.968;7.754;2023-01-16T03:38:16;9.32;;;1.10;;
28605;SDS011;46498;49.968;7.754;2023-01-16T03:43:27;7.97;;;0.98;;
28605;SDS011;46498;49.968;7.754;2023-01-16T03:48:36;6.80;;;0.97;;
28605;SDS011;46498;49.968;7.754;2023-01-16T03:53:50;6.53;;;0.88;;
28605;SDS011;46498;49.968;7.754;2023-01-16T03:59:01;15.30;;;1.70;;
28605;SDS011;46498;49.968;7.754;2023-01-16T04:04:10;8.98;;;1.20;;
28605;SDS011;46498;49.968;7.754;2023-01-16T04:09:23;5.72;;;1.37;;
28605;SDS011;46498;49.968;7.754;2023-01-16T04:14:30;7.60;;;1.00;;
28605;SDS011;46498;49.968;7.754;2023-01-16T04:19:33;13.35;;;1.05;;
28605;SDS011;46498;49.968;7.754;2023-01-16T04:24:35;6.68;;;0.82;;
28605;SDS011;46498;49.968;7.754;2023-01-16T04:29:35;8.52;;;1.40;;
28605;SDS011;46498;49.968;7.754;2023-01-16T04:34:36;15.20;;;1.50;;
28605;SDS011;46498;49.968;7.754;2023-01-16T04:39:37;8.95;;;0.95;;
28605;SDS011;46498;49.968;7.754;2023-01-16T04:44:38;4.68;;;0.88;;
28605;SDS011;46498;49.968;7.754;2023-01-16T04:49:39;9.70;;;1.17;;
28605;SDS011;46498;49.968;7.754;2023-01-16T04:54:39;4.00;;;1.05;;
28605;SDS011;46498;49.968;7.754;2023-01-16T04:59:40;3.58;;;0.68;;
28605;SDS011;46498;49.968;7.754;2023-01-16T05:04:41;6.25;;;1.00;;
28605;SDS011;46498;49.968;7.754;2023-01-16T05:09:42;12.18;;;1.15;;
28605;SDS011;46498;49.968;7.754;2023-01-16T05:14:43;5.20;;;0.90;;
28605;SDS011;46498;49.968;7.754;2023-01-16T05:19:43;8.73;;;1.00;;
28605;SDS011;46498;49.968;7.754;2023-01-16T05:24:44;10.82;;;1.05;;
28605;SDS011;46498;49.968;7.754;2023-01-16T05:29:48;8.45;;;0.90;;
28605;SDS011;46498;49.968;7.754;2023-01-16T05:34:48;10.07;;;2.05;;
28605;SDS011;46498;49.968;7.754;2023-01-16T05:39:49;8.60;;;1.10;;
28605;SDS011;46498;49.968;7.754;2023-01-16T05:44:51;13.98;;;1.35;;
28605;SDS011;46498;49.968;7.754;2023-01-16T05:49:52;6.25;;;1.20;;
28605;SDS011;46498;49.968;7.754;2023-01-16T05:54:53;4.95;;;1.00;;
28605;SDS011;46498;49.968;7.754;2023-01-16T05:59:54;7.50;;;1.00;;
28605;SDS011;46498;49.968;7.754;2023-01-16T06:04:55;6.87;;;1.90;;
28605;SDS011;46498;49.968;7.754;2023-01-16T06:09:56;4.78;;;1.12;;
28605;SDS011;46498;49.968;7.754;2023-01-16T06:14:57;5.32;;;1.02;;
28605;SDS011;46498;49.968;7.754;2023-01-16T06:19:58;6.72;;;1.27;;
28605;SDS011;46498;49.968;7.754;2023-01-16T06:25:00;7.55;;;1.05;;
28605;SDS011;46498;49.968;7.754;2023-01-16T06:30:01;4.72;;;0.70;;
28605;SDS011;46498;49.968;7.754;2023-01-16T06:35:01;8.15;;;0.80;;
28605;SDS011;46498;49.968;7.754;2023-01-16T06:40:03;4.55;;;1.20;;
28605;SDS011;46498;49.968;7.754;2023-01-16T06:45:04;5.55;;;0.90;;
28605;SDS011;46498;49.968;7.754;2023-01-16T06:50:06;5.35;;;0.70;;
28605;SDS011;46498;49.968;7.754;2023-01-16T06:55:08;4.90;;;0.87;;
28605;SDS011;46498;49.968;7.754;2023-01-16T07:00:09;9.57;;;1.08;;
28605;SDS011;46498;49.968;7.754;2023-01-16T07:05:11;6.18;;;1.02;;
28605;SDS011;46498;49.968;7.754;2023-01-16T07:10:13;8.38;;;1.00;;
28605;SDS011;46498;49.968;7.754;2023-01-16T07:15:14;7.07;;;0.88;;
28605;SDS011;46498;49.968;7.754;2023-01-16T07:20:33;3.70;;;0.60;;
28605;SDS011;46498;49.968;7.754;2023-01-16T07:25:53;2.85;;;0.90;;
28605;SDS011;46498;49.968;7.754;2023-01-16T07:30:56;6.72;;;1.30;;
28605;SDS011;46498;49.968;7.754;2023-01-16T07:35:58;4.28;;;0.95;;
28605;SDS011;46498;49.968;7.754;2023-01-16T07:40:59;9.48;;;1.50;;
28605;SDS011;46498;49.968;7.754;2023-01-16T07:46:01;7.43;;;1.20;;
28605;SDS011;46498;49.968;7.754;2023-01-16T07:51:02;5.12;;;0.88;;
28605;SDS011;46498;49.968;7.754;2023-01-16T07:56:03;5.45;;;1.20;;
28605;SDS011;46498;49.968;7.754;2023-01-16T08:01:04;3.12;;;0.77;;
28605;SDS011;46498;49.968;7.754;2023-01-16T08:06:06;6.33;;;1.27;;
28605;SDS011;46498;49.968;7.754;2023-01-16T08:11:08;10.23;;;1.35;;
28605;SDS011;46498;49.968;7.754;2023-01-16T08:16:27;9.90;;;1.70;;
28605;SDS011;46498;49.968;7.754;2023-01-16T08:21:28;8.90;;;1.33;;
28605;SDS011;46498;49.968;7.754;2023-01-16T08:26:29;16.75;;;1.52;;
28605;SDS011;46498;49.968;7.754;2023-01-16T08:31:31;8.73;;;1.10;;
28605;SDS011;46498;49.968;7.754;2023-01-16T08:36:32;9.82;;;1.00;;
28605;SDS011;46498;49.968;7.754;2023-01-16T08:41:33;11.75;;;1.67;;
28605;SDS011;46498;49.968;7.754;2023-01-16T08:46:54;11.45;;;1.77;;
28605;SDS011;46498;49.968;7.754;2023-01-16T08:52:18;8.38;;;1.48;;
28605;SDS011;46498;49.968;7.754;2023-01-16T08:57:19;8.95;;;1.60;;
28605;SDS011;46498;49.968;7.754;2023-01-16T09:02:20;7.12;;;1.02;;
28605;SDS011;46498;49.968;7.754;2023-01-16T09:07:21;10.60;;;1.25;;
28605;SDS011;46498;49.968;7.754;2023-01-16T09:12:22;8.30;;;1.23;;
28605;SDS011;46498;49.968;7.754;2023-01-16T09:17:42;9.88;;;1.40;;
28605;SDS011;46498;49.968;7.754;2023-01-16T09:22:42;13.95;;;1.30;;
28605;SDS011;46498;49.968;7.754;2023-01-16T09:27:43;7.07;;;1.23;;
28605;SDS011;46498;49.968;7.754;2023-01-16T09:37:48;12.50;;;1.30;;
28605;SDS011;46498;49.968;7.754;2023-01-16T09:50:06;6.80;;;1.20;;
28605;SDS011;46498;49.968;7.754;2023-01-16T09:55:16;10.13;;;1.35;;
28605;SDS011;46498;49.968;7.754;2023-01-16T10:00:40;15.40;;;1.73;;
28605;SDS011;46498;49.968;7.754;2023-01-16T10:12:34;8.00;;;1.00;;
28605;SDS011;46498;49.968;7.754;2023-01-16T10:23:11;9.75;;;1.17;;
28605;SDS011;46498;49.968;7.754;2023-01-16T10:28:48;15.23;;;2.03;;
28605;SDS011;46498;49.968;7.754;2023-01-16T10:34:08;10.85;;;1.87;;
28605;SDS011;46498;49.968;7.754;2023-01-16T10:39:15;12.50;;;1.60;;
28605;SDS011;46498;49.968;7.754;2023-01-16T10:44:33;13.20;;;1.90;;
28605;SDS011;46498;49.968;7.754;2023-01-16T10:49:57;2.60;;;1.08;;
28605;SDS011;46498;49.968;7.754;2023-01-16T10:54:59;10.35;;;2.03;;
28605;SDS011;46498;49.968;7.754;2023-01-16T11:00:04;6.28;;;1.73;;
28605;SDS011;46498;49.968;7.754;2023-01-16T11:05:22;8.23;;;2.53;;
28605;SDS011;46498;49.968;7.754;2023-01-16T11:10:25;9.35;;;2.35;;
28605;SDS011;46498;49.968;7.754;2023-01-16T11:15:26;9.45;;;1.85;;
28605;SDS011;46498;49.968;7.754;2023-01-16T11:20:46;5.00;;;1.40;;
28605;SDS011;46498;49.968;7.754;2023-01-16T11:25:51;12.73;;;1.80;;
28605;SDS011;46498;49.968;7.754;2023-01-16T11:30:57;10.07;;;2.03;;
28605;SDS011;46498;49.968;7.754;2023-01-16T11:36:02;5.05;;;1.50;;
28605;SDS011;46498;49.968;7.754;2023-01-16T11:41:04;2.92;;;0.88;;
28605;SDS011;46498;49.968;7.754;2023-01-16T11:46:32;4.22;;;1.02;;
28605;SDS011;46498;49.968;7.754;2023-01-16T11:51:43;7.40;;;1.98;;
28605;SDS011;46498;49.968;7.754;2023-01-16T11:58:18;8.13;;;3.08;;
28605;SDS011;46498;49.968;7.754;2023-01-16T12:03:48;10.00;;;3.47;;
28605;SDS011;46498;49.968;7.754;2023-01-16T12:14:40;6.90;;;0.98;;
28605;SDS011;46498;49.968;7.754;2023-01-16T12:32:31;7.85;;;2.10;;
28605;SDS011;46498;49.968;7.754;2023-01-16T12:37:47;3.15;;;1.10;;
28605;SDS011;46498;49.968;7.754;2023-01-16T12:55:43;4.28;;;1.12;;
28605;SDS011;46498;49.968;7.754;2023-01-16T13:01:28;2.65;;;0.65;;
28605;SDS011;46498;49.968;7.754;2023-01-16T13:06:37;2.12;;;1.08;;
28605;SDS011;46498;49.968;7.754;2023-01-16T13:11:57;2.40;;;1.12;;
28605;SDS011;46498;49.968;7.754;2023-01-16T13:17:23;1.80;;;0.60;;
28605;SDS011;46498;49.968;7.754;2023-01-16T13:22:35;4.47;;;1.67;;
28605;SDS011;46498;49.968;7.754;2023-01-16T13:27:53;2.72;;;0.77;;
28605;SDS011;46498;49.968;7.754;2023-01-16T13:33:00;3.08;;;0.85;;
28605;SDS011;46498;49.968;7.754;2023-01-16T13:38:21;3.28;;;1.12;;
28605;SDS011;46498;49.968;7.754;2023-01-16T13:50:37;1.65;;;0.80;;
28605;SDS011;46498;49.968;7.754;2023-01-16T13:55:39;6.47;;;1.35;;
28605;SDS011;46498;49.968;7.754;2023-01-16T14:00:43;1.12;;;0.50;;
28605;SDS011;46498;49.968;7.754;2023-01-16T14:05:46;4.78;;;0.80;;
28605;SDS011;46498;49.968;7.754;2023-01-16T14:17:25;2.20;;;0.80;;
28605;SDS011;46498;49.968;7.754;2023-01-16T14:22:35;4.45;;;1.05;;
28605;SDS011;46498;49.968;7.754;2023-01-16T14:27:50;1.60;;;0.60;;
28605;SDS011;46498;49.968;7.754;2023-01-16T14:32:54;3.72;;;0.50;;
28605;SDS011;46498;49.968;7.754;2023-01-16T14:43:25;10.73;;;4.10;;
28605;SDS011;46498;49.968;7.754;2023-01-16T14:48:47;4.60;;;0.82;;
28605;SDS011;46498;49.968;7.754;2023-01-16T14:54:07;0.73;;;0.40;;
28605;SDS011;46498;49.968;7.754;2023-01-16T14:59:31;4.05;;;0.73;;
28605;SDS011;46498;49.968;7.754;2023-01-16T15:04:41;1.83;;;0.37;;
28605;SDS011;46498;49.968;7.754;2023-01-16T15:09:47;1.53;;;0.73;;
28605;SDS011;46498;49.968;7.754;2023-01-16T15:14:51;1.58;;;0.82;;
28605;SDS011;46498;49.968;7.754;2023-01-16T15:35:03;2.67;;;0.60;;
28605;SDS011;46498;49.968;7.754;2023-01-16T15:40:22;1.48;;;0.45;;
28605;SDS011;46498;49.968;7.754;2023-01-16T15:45:24;2.45;;;1.00;;
28605;SDS011;46498;49.968;7.754;2023-01-16T15:50:57;1.37;;;0.62;;
28605;SDS011;46498;49.968;7.754;2023-01-16T15:56:05;0.70;;;0.40;;
28605;SDS011;46498;49.968;7.754;2023-01-16T16:01:09;1.37;;;0.40;;
28605;SDS011;46498;49.968;7.754;2023-01-16T16:06:11;2.60;;;0.90;;
28605;SDS011;46498;49.968;7.754;2023-01-16T16:11:19;0.40;;;0.28;;
28605;SDS011;46498;49.968;7.754;2023-01-16T16:16:41;0.90;;;0.50;;
28605;SDS011;46498;49.968;7.754;2023-01-16T16:22:21;1.05;;;0.82;;
28605;SDS011;46498;49.968;7.754;2023-01-16T16:27:42;1.00;;;0.70;;
28605;SDS011;46498;49.968;7.754;2023-01-16T16:32:43;0.70;;;0.40;;
28605;SDS011;46498;49.968;7.754;2023-01-16T16:37:44;0.43;;;0.20;;
28605;SDS011;46498;49.968;7.754;2023-01-16T16:42:49;0.40;;;0.30;;
28605;SDS011;46498;49.968;7.754;2023-01-16T16:53:25;2.28;;;1.00;;
28605;SDS011;46498;49.968;7.754;2023-01-16T16:58:27;0.45;;;0.40;;
28605;SDS011;46498;49.968;7.754;2023-01-16T17:03:29;0.40;;;0.28;;
28605;SDS011;46498;49.968;7.754;2023-01-16T17:13:32;3.75;;;2.03;;
28605;SDS011;46498;49.968;7.754;2023-01-16T17:18:33;4.28;;;2.75;;
28605;SDS011;46498;49.968;7.754;2023-01-16T17:23:34;1.95;;;0.80;;
28605;SDS011;46498;49.968;7.754;2023-01-16T17:28:34;0.93;;;0.50;;
28605;SDS011;46498;49.968;7.754;2023-01-16T17:33:36;1.42;;;0.40;;
28605;SDS011;46498;49.968;7.754;2023-01-16T17:38:37;0.52;;;0.30;;
28605;SDS011;46498;49.968;7.754;2023-01-16T17:43:40;3.53;;;0.80;;
28605;SDS011;46498;49.968;7.754;2023-01-16T17:49:00;1.65;;;0.80;;
28605;SDS011;46498;49.968;7.754;2023-01-16T17:54:01;1.60;;;0.50;;
28605;SDS011;46498;49.968;7.754;2023-01-16T17:59:02;2.80;;;1.08;;
28605;SDS011;46498;49.968;7.754;2023-01-16T18:04:11;1.27;;;0.90;;
28605;SDS011;46498;49.968;7.754;2023-01-16T18:09:19;2.22;;;0.80;;
28605;SDS011;46498;49.968;7.754;2023-01-16T18:14:21;1.30;;;0.73;;
28605;SDS011;46498;49.968;7.754;2023-01-16T18:19:40;1.02;;;0.50;;
28605;SDS011;46498;49.968;7.754;2023-01-16T18:24:42;0.55;;;0.30;;
28605;SDS011;46498;49.968;7.754;2023-01-16T18:29:43;12.67;;;4.73;;
28605;SDS011;46498;49.968;7.754;2023-01-16T18:34:48;1.37;;;0.62;;
28605;SDS011;46498;49.968;7.754;2023-01-16T18:40:00;1.87;;;0.82;;
28605;SDS011;46498;49.968;7.754;2023-01-16T18:45:20;2.35;;;0.70;;
28605;SDS011;46498;49.968;7.754;2023-01-16T18:50:40;1.77;;;0.90;;
28605;SDS011;46498;49.968;7.754;2023-01-16T18:56:01;0.85;;;0.40;;
28605;SDS011;46498;49.968;7.754;2023-01-16T19:01:20;1.30;;;0.60;;
28605;SDS011;46498;49.968;7.754;2023-01-16T19:06:40;0.70;;;0.30;;
28605;SDS011;46498;49.968;7.754;2023-01-16T19:11:42;0.88;;;0.37;;
28605;SDS011;46498;49.968;7.754;2023-01-16T19:16:43;1.05;;;0.40;;
28605;SDS011;46498;49.968;7.754;2023-01-16T19:21:44;1.62;;;0.32;;
28605;SDS011;46498;49.968;7.754;2023-01-16T19:26:45;0.90;;;0.50;;
28605;SDS011;46498;49.968;7.754;2023-01-16T19:31:46;1.30;;;0.43;;
28605;SDS011;46498;49.968;7.754;2023-01-16T19:36:48;0.93;;;0.40;;
28605;SDS011;46498;49.968;7.754;2023-01-16T19:41:49;0.50;;;0.37;;
28605;SDS011;46498;49.968;7.754;2023-01-16T19:47:08;1.85;;;0.47;;
28605;SDS011;46498;49.968;7.754;2023-01-16T19:52:09;1.35;;;0.40;;
28605;SDS011;46498;49.968;7.754;2023-01-16T19:57:11;0.60;;;0.40;;
28605;SDS011;46498;49.968;7.754;2023-01-16T20:02:11;1.75;;;0.80;;
28605;SDS011;46498;49.968;7.754;2023-01-16T20:07:13;1.15;;;0.60;;
28605;SDS011;46498;49.968;7.754;2023-01-16T20:12:14;0.98;;;0.40;;
28605;SDS011;46498;49.968;7.754;2023-01-16T20:17:26;3.45;;;1.08;;
28605;SDS011;46498;49.968;7.754;2023-01-16T20:22:36;2.92;;;0.60;;
28605;SDS011;46498;49.968;7.754;2023-01-16T20:27:38;1.50;;;0.50;;
28605;SDS011;46498;49.968;7.754;2023-01-16T20:32:40;0.85;;;0.52;;
28605;SDS011;46498;49.968;7.754;2023-01-16T20:37:42;1.40;;;0.73;;
28605;SDS011;46498;49.968;7.754;2023-01-16T20:42:42;3.45;;;1.30;;
28605;SDS011;46498;49.968;7.754;2023-01-16T20:48:02;11.60;;;4.12;;
28605;SDS011;46498;49.968;7.754;2023-01-16T20:53:03;2.20;;;0.70;;
28605;SDS011;46498;49.968;7.754;2023-01-16T20:58:03;3.17;;;1.08;;
28605;SDS011;46498;49.968;7.754;2023-01-16T21:03:04;2.22;;;1.08;;
28605;SDS011;46498;49.968;7.754;2023-01-16T21:08:06;3.03;;;0.95;;
28605;SDS011;46498;49.968;7.754;2023-01-16T21:13:08;3.65;;;1.12;;
28605;SDS011;46498;49.968;7.754;2023-01-16T21:18:29;2.95;;;1.48;;
28605;SDS011;46498;49.968;7.754;2023-01-16T21:23:48;7.00;;;3.17;;
28605;SDS011;46498;49.968;7.754;2023-01-16T21:28:49;5.57;;;1.60;;
28605;SDS011;46498;49.968;7.754;2023-01-16T21:33:50;3.08;;;1.65;;
28605;SDS011;46498;49.968;7.754;2023-01-16T21:38:51;2.95;;;1.60;;
28605;SDS011;46498;49.968;7.754;2023-01-16T21:43:51;4.55;;;2.53;;
28605;SDS011;46498;49.968;7.754;2023-01-16T21:49:11;4.28;;;2.22;;
28605;SDS011;46498;49.968;7.754;2023-01-16T21:54:11;5.00;;;2.15;;
28605;SDS011;46498;49.968;7.754;2023-01-16T21:59:12;3.47;;;1.98;;
28605;SDS011;46498;49.968;7.754;2023-01-16T22:04:13;4.65;;;2.20;;
28605;SDS011;46498;49.968;7.754;2023-01-16T22:09:14;8.15;;;2.17;;
28605;SDS011;46498;49.968;7.754;2023-01-16T22:14:16;5.57;;;2.87;;
28605;SDS011;46498;49.968;7.754;2023-01-16T22:19:35;6.90;;;2.90;;
28605;SDS011;46498;49.968;7.754;2023-01-16T22:24:54;8.32;;;3.12;;
28605;SDS011;46498;49.968;7.754;2023-01-16T22:29:56;7.60;;;3.17;;
28605;SDS011;46498;49.968;7.754;2023-01-16T22:34:57;7.87;;;3.08;;
28605;SDS011;46498;49.968;7.754;2023-01-16T22:39:58;14.55;;;4.03;;
28605;SDS011;46498;49.968;7.754;2023-01-16T22:44:59;16.30;;;4.95;;
28605;SDS011;46498;49.968;7.754;2023-01-16T22:50:18;15.13;;;3.42;;
28605;SDS011;46498;49.968;7.754;2023-01-16T22:55:19;8.73;;;3.15;;
28605;SDS011;46498;49.968;7.754;2023-01-16T23:00:21;8.20;;;3.17;;
28605;SDS011;46498;49.968;7.754;2023-01-16T23:05:21;8.20;;;3.10;;
28605;SDS011;46498;49.968;7.754;2023-01-16T23:10:22;14.10;;;4.00;;
28605;SDS011;46498;49.968;7.754;2023-01-16T23:15:25;12.80;;;3.83;;
28605;SDS011;46498;49.968;7.754;2023-01-16T23:20:25;29.60;;;7.10;;
28605;SDS011;46498;49.968;7.754;2023-01-16T23:25:26;16.58;;;5.35;;
28605;SDS011;46498;49.968;7.754;2023-01-16T23:30:27;9.00;;;2.83;;
28605;SDS011;46498;49.968;7.754;2023-01-16T23:35:28;11.23;;;3.42;;
28605;SDS011;46498;49.968;7.754;2023-01-16T23:40:29;9.50;;;3.22;;
28605;SDS011;46498;49.968;7.754;2023-01-16T23:45:30;9.45;;;3.00;;
28605;SDS011;46498;49.968;7.754;2023-01-16T23:50:33;10.15;;;2.70;;
28605;SDS011;46498;49.968;7.754;2023-01-16T23:55:35;8.10;;;3.10;;
